KCAK

Akron-Canton Regional Airport

Akron, Ohio, USA
METAR KCAK 261251Z 22004KT 10SM FEW150 BKN230 23/15 A2988 RMK AO2 SLP109 T02280150
Observed Flight Rules
May-26 @ 12:51 UTC (46 minutes ago) Visual Flight Rules
Wind Visibility Clouds
220° at 4 knots 10 miles
  • Few at 15,000' AGL
  • Broken at 23,000' AGL
Temperatures Readings
Current 23°C / 73°F
Dewpoint 15°C / 59°F
Humidity 61%
Altimeter 29.88" Hg
Pressure 1010.9 hPa
Elevation 377
METAR KCAK 261251Z 22004KT 10SM FEW150 BKN230 23/15 A2988 RMK AO2 SLP109 T02280150
Observed Flight Rules
May-26 @ 12:51 UTC
(46 minutes ago)
VFR
Wind Visibility
220° at 4 knots 10 miles
Clouds
  • Few at 15,000' AGL
  • Broken at 23,000' AGL
Temperature Dewpoint
23°C / 73°F 15°C / 59°F
Humidity Altimeter Pressure
61% 29.88" Hg 1010.9 hPa